»·PEaware :: N1158M KSFF-KRNT

N1158M :: KSFF-KRNT

FLIGHT INFORMATION

Flight Status: Arrived
Operator: Privately registered:
United States
More flights under this callsign
Pilot: Steven W. (36)
Aircraft: CESSNA 337 TURBO SKYMASTER
(C337)
More flights by this aircraft type
Origin: KSFF Felts
United States
Destination: KRNT Renton Mun
United States
More flights between these airports :: More routes between these airports
Route: +HAYDEN4 GEG V20 TAGOR
File this flight plan on PilotEdge
Remarks: expecting HAYDEN FOUR Departure
Altitude:
(Current/Filed)
14,000ft
Speed:
(Current/Filed)
165kts
Departed: 15-Feb-18 11:57 AM
Arrived: 15-Feb-18 01:24 PM
Distance/Time
Traveled:
198nm/1:27
Distance/Time
To Go:
Arrived

Flight Plot

Page will automatically refresh every two minutes.


Map Options




Map Legend


Flown Route
Filed Route
Departure Airport
Arrival Airport
Navaid (VOR, NDB)
Fix

Horizontal Profiles

Position Reports

Time Latitude Longitude Heading Altitude Ground
Speed
15-Feb-18 11:56 47.681116 -117.321223 339 1956ft 0kts
15-Feb-18 11:57 47.681116 -117.321223 339 1956ft 0kts
15-Feb-18 11:58 47.681116 -117.321223 339 1956ft 0kts
15-Feb-18 11:59 47.681116 -117.321223 339 1956ft 0kts
15-Feb-18 12:00 47.681116 -117.321223 339 1956ft 0kts
15-Feb-18 12:01 47.680899 -117.323032 231 1956ft 9kts
15-Feb-18 12:02 47.680067 -117.325088 308 1956ft 0kts
15-Feb-18 12:03 47.680362 -117.325364 332 1956ft 6kts
15-Feb-18 12:04 47.691507 -117.299345 72 2613ft 107kts
15-Feb-18 12:05 47.700813 -117.252440 74 3789ft 133kts
15-Feb-18 12:06 47.711533 -117.197402 74 4872ft 138kts
15-Feb-18 12:07 47.734310 -117.182532 292 6255ft 105kts
15-Feb-18 12:08 47.740947 -117.220074 263 7646ft 83kts
15-Feb-18 12:09 47.730844 -117.245429 240 8629ft 83kts
15-Feb-18 12:10 47.714871 -117.280969 241 9278ft 120kts
15-Feb-18 12:11 47.695940 -117.323504 241 10083ft 125kts
15-Feb-18 12:12 47.676869 -117.366881 242 10888ft 126kts
15-Feb-18 12:13 47.657529 -117.409661 242 11691ft 124kts
15-Feb-18 12:14 47.636698 -117.455290 242 11998ft 150kts
15-Feb-18 12:15 47.612048 -117.511430 242 11986ft 169kts
15-Feb-18 12:16 47.586976 -117.571119 244 11974ft 171kts
15-Feb-18 12:17 47.564771 -117.632249 264 12144ft 157kts
15-Feb-18 12:18 47.558759 -117.690649 267 12935ft 134kts
15-Feb-18 12:19 47.553656 -117.742891 269 13734ft 123kts
15-Feb-18 12:20 47.548942 -117.791150 270 14533ft 115kts
15-Feb-18 12:21 47.544520 -117.836219 272 15334ft 107kts
15-Feb-18 12:22 47.540417 -117.878592 273 15887ft 119kts
15-Feb-18 12:23 47.533964 -117.945778 267 14362ft 192kts
15-Feb-18 12:24 47.526343 -118.020349 267 13968ft 169kts
15-Feb-18 12:25 47.519679 -118.086868 267 13969ft 160kts
15-Feb-18 12:26 47.513390 -118.151791 267 13973ft 159kts
15-Feb-18 12:27 47.506922 -118.216602 267 13973ft 159kts
15-Feb-18 12:28 47.500328 -118.281474 267 13973ft 159kts
15-Feb-18 12:29 47.493688 -118.346272 267 13979ft 159kts
15-Feb-18 12:30 47.488145 -118.400078 267 14002ft 158kts
15-Feb-18 12:31 47.481489 -118.464365 267 14029ft 158kts
15-Feb-18 12:32 47.473690 -118.539218 267 14060ft 158kts
15-Feb-18 12:33 47.468075 -118.592818 267 14072ft 158kts
15-Feb-18 12:34 47.460152 -118.668025 267 14072ft 159kts
15-Feb-18 12:35 47.454452 -118.721812 267 14072ft 159kts
15-Feb-18 12:36 47.447604 -118.786121 267 14076ft 158kts
15-Feb-18 12:37 47.440728 -118.850368 267 14076ft 158kts
15-Feb-18 12:38 47.433697 -118.915751 267 13994ft 162kts
15-Feb-18 12:39 47.426583 -118.981430 266 13994ft 162kts
15-Feb-18 12:40 47.419409 -119.047350 266 13994ft 163kts
15-Feb-18 12:41 47.412185 -119.113650 266 13996ft 164kts
15-Feb-18 12:42 47.405091 -119.180374 266 13996ft 165kts
15-Feb-18 12:43 47.397723 -119.247291 265 13996ft 165kts
15-Feb-18 12:44 47.390263 -119.314356 265 13994ft 165kts
15-Feb-18 12:45 47.382771 -119.381288 265 13989ft 165kts
15-Feb-18 12:46 47.378770 -119.448149 276 13984ft 162kts
15-Feb-18 12:47 47.380733 -119.514659 277 13979ft 162kts
15-Feb-18 12:48 47.382697 -119.581132 277 13977ft 162kts
15-Feb-18 12:49 47.384634 -119.647713 277 13977ft 162kts
15-Feb-18 12:50 47.386529 -119.714114 277 13977ft 162kts
15-Feb-18 12:51 47.388389 -119.780670 277 13977ft 162kts
15-Feb-18 12:52 47.390210 -119.847174 277 13977ft 162kts
15-Feb-18 12:53 47.391974 -119.913025 277 13976ft 162kts
15-Feb-18 12:54 47.393700 -119.978874 277 13976ft 162kts
15-Feb-18 12:55 47.395399 -120.045127 277 13985ft 161kts
15-Feb-18 12:56 47.397086 -120.111387 276 13987ft 162kts
15-Feb-18 12:57 47.398975 -120.177918 276 13987ft 162kts
15-Feb-18 12:58 47.400681 -120.244686 276 13987ft 162kts
15-Feb-18 12:59 47.402364 -120.311141 276 13987ft 162kts
15-Feb-18 13:00 47.404009 -120.377842 276 13987ft 162kts
15-Feb-18 13:01 47.405615 -120.444594 276 13987ft 162kts
15-Feb-18 13:02 47.407181 -120.511270 276 13985ft 162kts
15-Feb-18 13:03 47.408711 -120.578085 276 13980ft 162kts
15-Feb-18 13:04 47.410199 -120.644760 276 13974ft 162kts
15-Feb-18 13:05 47.411637 -120.710885 276 13969ft 162kts
15-Feb-18 13:06 47.413048 -120.777598 276 13967ft 162kts
15-Feb-18 13:07 47.414419 -120.844284 276 13967ft 162kts
15-Feb-18 13:08 47.415753 -120.910958 276 13967ft 162kts
15-Feb-18 13:09 47.417044 -120.977772 276 13967ft 162kts
15-Feb-18 13:10 47.418286 -121.044133 276 13967ft 161kts
15-Feb-18 13:11 47.419506 -121.110040 276 13968ft 160kts
15-Feb-18 13:12 47.420922 -121.175331 276 13969ft 159kts
15-Feb-18 13:13 47.422072 -121.240394 276 13961ft 158kts
15-Feb-18 13:14 47.423171 -121.305475 276 13946ft 157kts
15-Feb-18 13:15 47.424199 -121.369984 276 13968ft 157kts
15-Feb-18 13:16 47.425186 -121.434049 276 13990ft 156kts
15-Feb-18 13:17 47.426141 -121.498344 276 13995ft 157kts
15-Feb-18 13:18 47.427134 -121.565916 275 13166ft 170kts
15-Feb-18 13:19 47.427983 -121.636332 274 11843ft 176kts
15-Feb-18 13:20 47.429082 -121.708832 272 10349ft 179kts
15-Feb-18 13:21 47.429929 -121.779040 272 9972ft 167kts
15-Feb-18 13:22 47.433139 -121.855887 282 8466ft 197kts
15-Feb-18 13:23 47.444516 -121.921601 281 6940ft 139kts
15-Feb-18 13:24 47.453499 -121.974323 281 5458ft 132kts
15-Feb-18 13:25 47.462430 -122.027070 281 3808ft 138kts
15-Feb-18 13:26 47.471052 -122.081742 280 2242ft 131kts
15-Feb-18 13:27 47.470247 -122.130277 263 1681ft 103kts
15-Feb-18 13:28 47.470419 -122.169574 270 1460ft 86kts
15-Feb-18 13:29 47.471167 -122.205312 296 799ft 88kts
15-Feb-18 13:30 47.491476 -122.215500 356 35ft 56kts
15-Feb-18 13:31 47.495107 -122.215916 356 35ft 8kts
15-Feb-18 13:32 47.496400 -122.215905 5 35ft 0kts

Navigation Log

Ident Type
Flight plan parsing failed, navigation log unavailable